createdAt,value
2023-01-29T00:00:38.804Z,4.8
2023-01-29T00:03:40.573Z,3.8
2023-01-29T00:06:42.521Z,4.7
2023-01-29T00:09:44.495Z,4.3
2023-01-29T00:12:46.448Z,4.1
2023-01-29T00:15:48.444Z,4.1
2023-01-29T00:18:50.394Z,4.1
2023-01-29T00:21:52.479Z,5.1
2023-01-29T00:24:54.306Z,4.6
2023-01-29T00:27:56.254Z,5
2023-01-29T00:30:58.356Z,5.9
2023-01-29T00:34:00.178Z,4.4
2023-01-29T00:37:02.175Z,4.4
2023-01-29T00:40:04.103Z,5
2023-01-29T00:43:06.063Z,4.8
2023-01-29T00:46:08.041Z,5.2
2023-01-29T00:49:09.989Z,4.6
2023-01-29T00:52:11.951Z,4.6
2023-01-29T00:55:13.924Z,4.1
2023-01-29T00:58:15.883Z,5
2023-01-29T01:01:17.910Z,4.6
2023-01-29T01:04:19.816Z,4.8
2023-01-29T01:07:21.837Z,4.7
2023-01-29T01:10:23.741Z,4.6
2023-01-29T01:13:25.676Z,4.5
2023-01-29T01:16:27.693Z,4.3
2023-01-29T01:19:29.617Z,4.5
2023-01-29T01:22:31.581Z,4.6
2023-01-29T01:25:33.552Z,4.3
2023-01-29T01:28:35.539Z,4.1
2023-01-29T01:31:37.496Z,3.6
2023-01-29T01:34:39.399Z,4.1
2023-01-29T01:37:41.387Z,3.3
2023-01-29T01:40:43.336Z,3.7
2023-01-29T01:43:45.315Z,3.9
2023-01-29T01:46:47.376Z,4.1
2023-01-29T01:49:49.237Z,4.6
2023-01-29T01:52:51.193Z,3.8
2023-01-29T01:55:53.153Z,4.3
2023-01-29T01:58:55.129Z,4.3
2023-01-29T02:01:57.116Z,3.8
2023-01-29T02:04:59.050Z,4.1
2023-01-29T02:08:01.045Z,4.8
2023-01-29T02:11:02.992Z,4.1
2023-01-29T02:14:04.961Z,4.8
2023-01-29T02:17:06.947Z,4.3
2023-01-29T02:20:09.004Z,4.9
2023-01-29T02:23:10.869Z,4.5
2023-01-29T02:26:12.825Z,4.6
2023-01-29T02:29:14.801Z,4.4
2023-01-29T02:32:16.770Z,4.2
2023-01-29T02:35:18.762Z,4.3
2023-01-29T02:38:20.681Z,5
2023-01-29T02:41:22.653Z,5.1
2023-01-29T02:44:24.608Z,4.4
2023-01-29T02:47:26.637Z,4.6
2023-01-29T02:50:28.553Z,5.6
2023-01-29T02:53:30.528Z,5.7
2023-01-29T02:56:32.494Z,5.1
2023-01-29T02:59:34.504Z,5.4
2023-01-29T03:02:36.480Z,5.2
2023-01-29T03:05:38.417Z,5.2
2023-01-29T03:08:40.399Z,4.9
2023-01-29T03:11:42.350Z,5.5
2023-01-29T03:14:44.291Z,5.2
2023-01-29T03:17:46.260Z,5.6
2023-01-29T03:20:48.357Z,5.8
2023-01-29T03:23:50.229Z,5.6
2023-01-29T03:26:52.223Z,6.1
2023-01-29T03:29:54.148Z,5.7
2023-01-29T03:32:56.128Z,5.2
2023-01-29T03:35:58.056Z,5.7
2023-01-29T03:39:00.046Z,5.3
2023-01-29T03:42:02.017Z,5.2
2023-01-29T03:45:03.972Z,5.8
2023-01-29T03:48:05.941Z,5.3
2023-01-29T03:51:07.880Z,5.6
2023-01-29T03:54:09.859Z,4.8
2023-01-29T03:57:11.899Z,5.4
2023-01-29T04:00:13.864Z,5.6
2023-01-29T04:03:15.753Z,5.2
2023-01-29T04:06:17.714Z,5.5
2023-01-29T04:09:19.686Z,5.8
2023-01-29T04:12:21.771Z,6.2
2023-01-29T04:15:23.600Z,5.4
2023-01-29T04:18:25.562Z,5.3
2023-01-29T04:21:27.587Z,5.5
2023-01-29T04:24:29.560Z,5.5
2023-01-29T04:27:31.462Z,5.3
2023-01-29T04:30:33.499Z,5.6
2023-01-29T04:33:35.400Z,6.4
2023-01-29T04:36:37.358Z,6.1
2023-01-29T04:39:39.320Z,5.6
2023-01-29T04:42:41.299Z,5.3
2023-01-29T04:45:43.255Z,6
2023-01-29T04:48:45.219Z,5.8
2023-01-29T04:51:47.171Z,5.5
2023-01-29T04:54:49.144Z,5.2
2023-01-29T04:57:51.115Z,5.4
2023-01-29T05:00:53.074Z,5.5
2023-01-29T05:03:55.058Z,5.4
2023-01-29T05:06:57.032Z,5.6
2023-01-29T05:09:58.980Z,5.1
2023-01-29T05:13:00.953Z,5.5
2023-01-29T05:16:02.970Z,5.2
2023-01-29T05:19:04.868Z,5.8
2023-01-29T05:22:06.849Z,5.4
2023-01-29T05:25:08.820Z,5.7
2023-01-29T05:28:10.789Z,4.9
2023-01-29T05:31:12.847Z,4.8
2023-01-29T05:34:14.717Z,5.5
2023-01-29T05:37:16.671Z,5.6
2023-01-29T05:40:18.795Z,5.1
2023-01-29T05:43:20.634Z,5.5
2023-01-29T05:46:22.670Z,6.1
2023-01-29T05:49:24.565Z,5.1
2023-01-29T05:52:26.533Z,5.9
2023-01-29T05:55:28.486Z,5.7
2023-01-29T05:58:30.455Z,5.9
2023-01-29T06:01:32.482Z,6.1
2023-01-29T06:04:34.397Z,5.6
2023-01-29T06:07:36.352Z,6.2
2023-01-29T06:10:38.302Z,5.8
2023-01-29T06:13:40.279Z,6.4
2023-01-29T06:16:42.319Z,5.5
2023-01-29T06:19:44.295Z,6.1
2023-01-29T06:22:46.270Z,6.8
2023-01-29T06:25:48.219Z,6.3
2023-01-29T06:28:50.225Z,6.2
2023-01-29T06:31:52.244Z,6.9
2023-01-29T06:34:54.149Z,6.6
2023-01-29T06:37:56.094Z,6.5
2023-01-29T06:40:58.093Z,8
2023-01-29T06:44:00.043Z,6.6
2023-01-29T06:47:02.017Z,7.5
2023-01-29T06:50:04.092Z,7.7
2023-01-29T06:53:06.020Z,7.4
2023-01-29T06:56:08.015Z,6.9
2023-01-29T06:59:10.045Z,6.7
2023-01-29T07:02:12.083Z,6.8
2023-01-29T07:05:14.008Z,7.1
2023-01-29T07:08:15.997Z,8.1
2023-01-29T07:11:17.901Z,7.4
2023-01-29T07:14:19.870Z,7.8
2023-01-29T07:17:21.845Z,7
2023-01-29T07:20:23.787Z,9.2
2023-01-29T07:23:25.747Z,7.9
2023-01-29T07:26:27.863Z,8.1
2023-01-29T07:29:29.823Z,7.8
2023-01-29T07:32:31.785Z,7.3
2023-01-29T07:35:33.742Z,8.5
2023-01-29T07:38:35.705Z,8.9
2023-01-29T07:41:37.679Z,8.2
2023-01-29T07:44:39.645Z,7.9
2023-01-29T07:47:41.626Z,8.7
2023-01-29T07:50:43.574Z,8.7
2023-01-29T07:53:45.522Z,8
2023-01-29T07:56:47.482Z,9.2
2023-01-29T07:59:49.443Z,8.1
2023-01-29T08:02:51.459Z,8.7
2023-01-29T08:05:53.530Z,7.6
2023-01-29T08:08:55.390Z,8.8
2023-01-29T08:11:57.349Z,8.7
2023-01-29T08:14:59.305Z,7.9
2023-01-29T08:18:01.294Z,7.8
2023-01-29T08:21:03.273Z,9.1
2023-01-29T08:24:05.261Z,9.7
2023-01-29T08:27:07.209Z,9.2
2023-01-29T08:30:09.184Z,7.7
2023-01-29T08:33:11.145Z,7.2
2023-01-29T08:36:13.131Z,7.5
2023-01-29T08:39:15.074Z,8.7
2023-01-29T08:42:17.080Z,7.4
2023-01-29T08:45:19.055Z,8.6
2023-01-29T08:48:21.016Z,8.5
2023-01-29T08:51:22.986Z,8.8
2023-01-29T08:54:24.954Z,9.2
2023-01-29T08:57:26.913Z,9.2
2023-01-29T09:00:28.905Z,7.6
2023-01-29T09:03:30.862Z,8.6
2023-01-29T09:06:32.821Z,8.7
2023-01-29T09:09:34.789Z,8.5
2023-01-29T09:12:36.756Z,7.4
2023-01-29T09:15:38.711Z,7.4
2023-01-29T09:18:40.668Z,9.1
2023-01-29T09:21:42.647Z,8.4
2023-01-29T09:24:44.586Z,8.4
2023-01-29T09:27:46.561Z,7.7
2023-01-29T09:30:48.631Z,7.6
2023-01-29T09:33:50.449Z,7.3
2023-01-29T09:36:52.429Z,7.2
2023-01-29T09:39:54.392Z,7.6
2023-01-29T09:42:56.360Z,7.9
2023-01-29T09:45:58.575Z,6.5
2023-01-29T09:49:00.510Z,6.6
2023-01-29T09:52:02.473Z,6.5
2023-01-29T09:55:04.452Z,7.5
2023-01-29T09:58:06.413Z,8.2
2023-01-29T10:01:08.415Z,6.6
2023-01-29T10:04:10.408Z,6.9
2023-01-29T10:07:12.311Z,8.2
2023-01-29T10:10:14.275Z,9.2
2023-01-29T10:13:16.277Z,8.5
2023-01-29T10:16:18.198Z,7
2023-01-29T10:19:20.144Z,8.2
2023-01-29T10:22:22.115Z,7.9
2023-01-29T10:25:24.075Z,8.4
2023-01-29T10:28:26.060Z,7.1
2023-01-29T10:31:28.124Z,8.2
2023-01-29T10:34:29.956Z,9
2023-01-29T10:37:31.928Z,9.3
2023-01-29T10:40:33.881Z,8.9
2023-01-29T10:43:35.826Z,9.2
2023-01-29T10:46:37.815Z,7.5
2023-01-29T10:49:39.956Z,8.7
2023-01-29T10:52:41.712Z,7.4
2023-01-29T10:55:43.689Z,8.5
2023-01-29T10:58:46.814Z,7.7
2023-01-29T11:01:47.666Z,7.2
2023-01-29T11:04:49.590Z,9
2023-01-29T11:07:51.559Z,8
2023-01-29T11:10:53.535Z,8.5
2023-01-29T11:13:55.498Z,8.5
2023-01-29T11:16:57.485Z,8.2
2023-01-29T11:19:59.433Z,8.9
2023-01-29T11:23:01.394Z,7.6
2023-01-29T11:26:03.374Z,7.3
2023-01-29T11:29:05.340Z,9.6
2023-01-29T11:32:07.326Z,9.1
2023-01-29T11:35:09.254Z,7.2
2023-01-29T11:38:11.223Z,8.5
2023-01-29T11:41:13.197Z,9.4
2023-01-29T11:44:15.170Z,8.5
2023-01-29T11:47:17.156Z,7.9
2023-01-29T11:50:19.332Z,8.6
2023-01-29T11:53:21.336Z,8.3
2023-01-29T11:56:23.813Z,8.9
2023-01-29T11:59:25.786Z,7.9
2023-01-29T12:02:27.797Z,8.2
2023-01-29T12:05:29.818Z,8.2
2023-01-29T12:08:31.666Z,8.1
2023-01-29T12:11:33.623Z,8.1
2023-01-29T12:14:35.618Z,9.5
2023-01-29T12:17:37.583Z,9.3
2023-01-29T12:20:39.548Z,10.4
2023-01-29T12:23:41.505Z,9.8
2023-01-29T12:26:43.496Z,8.4
2023-01-29T12:29:45.460Z,7.8
2023-01-29T12:32:47.405Z,8.9
2023-01-29T12:35:49.417Z,8.8
2023-01-29T12:38:51.351Z,8.3
2023-01-29T12:41:53.328Z,7.5
2023-01-29T12:44:55.298Z,8.1
2023-01-29T12:47:57.269Z,8
2023-01-29T12:50:59.200Z,7.9
2023-01-29T12:54:01.168Z,8.5
2023-01-29T12:57:03.145Z,8
2023-01-29T13:00:05.104Z,8.4
2023-01-29T13:03:07.107Z,8.3
2023-01-29T13:06:09.055Z,7.7
2023-01-29T13:09:11.016Z,8.2
2023-01-29T13:12:12.989Z,8.3
2023-01-29T13:15:14.956Z,9.3
2023-01-29T13:18:16.937Z,7.9
2023-01-29T13:21:18.914Z,7.6
2023-01-29T13:24:20.872Z,6.9
2023-01-29T13:27:22.858Z,7.6
2023-01-29T13:30:24.810Z,6.4
2023-01-29T13:33:26.862Z,7.4
2023-01-29T13:36:28.759Z,6.3
2023-01-29T13:39:30.710Z,6.8
2023-01-29T13:42:32.663Z,6.5
2023-01-29T13:45:34.645Z,7.9
2023-01-29T13:48:36.590Z,6.6
2023-01-29T13:51:38.582Z,6.7
2023-01-29T13:54:40.539Z,7.1
2023-01-29T13:57:42.530Z,7.4
2023-01-29T14:00:44.448Z,8
2023-01-29T14:04:03.557Z,7
2023-01-29T14:06:48.451Z,6
2023-01-29T14:09:50.345Z,7.9
2023-01-29T14:12:52.332Z,6.7
2023-01-29T14:15:54.318Z,5.6
2023-01-29T14:18:56.267Z,7.3
2023-01-29T14:21:58.225Z,7.3
2023-01-29T14:25:00.179Z,8.1
2023-01-29T14:28:02.221Z,6.8
2023-01-29T14:31:04.217Z,7.4
2023-01-29T14:34:06.109Z,6.7
2023-01-29T14:37:08.065Z,7.7
2023-01-29T14:40:10.069Z,7.3
2023-01-29T14:43:12.049Z,6.3
2023-01-29T14:46:14.058Z,6
2023-01-29T14:49:16.014Z,6.6
2023-01-29T14:52:17.975Z,7.1
2023-01-29T14:55:19.944Z,7.1
2023-01-29T14:58:21.976Z,6.8
2023-01-29T15:01:23.925Z,6.9
2023-01-29T15:04:25.927Z,6.5
2023-01-29T15:07:27.855Z,6.9
2023-01-29T15:10:29.797Z,7.3
2023-01-29T15:13:31.777Z,6.6
2023-01-29T15:16:33.745Z,6.9
2023-01-29T15:19:35.731Z,6.6
2023-01-29T15:22:37.767Z,7.1
2023-01-29T15:25:39.712Z,6
2023-01-29T15:28:42.363Z,5.4
2023-01-29T15:31:45.707Z,6.9
2023-01-29T15:34:45.686Z,5.4
2023-01-29T15:37:47.616Z,7.2
2023-01-29T15:40:49.590Z,5.7
2023-01-29T15:43:51.604Z,6.1
2023-01-29T15:46:53.517Z,5.6
2023-01-29T15:49:55.497Z,5.8
2023-01-29T15:52:57.455Z,5.7
2023-01-29T15:55:59.438Z,6
2023-01-29T15:59:02.830Z,6.9
2023-01-29T16:02:03.347Z,6.4
2023-01-29T16:05:05.332Z,6.1
2023-01-29T16:08:07.280Z,5.3
2023-01-29T16:11:09.270Z,5.2
2023-01-29T16:14:11.237Z,5.5
2023-01-29T16:17:13.313Z,5
2023-01-29T16:20:15.166Z,7.2
2023-01-29T16:23:17.208Z,6.6
2023-01-29T16:26:19.186Z,7.1
2023-01-29T16:29:21.117Z,6.9
2023-01-29T16:32:23.085Z,6.5
2023-01-29T16:35:25.114Z,6.4
2023-01-29T16:38:27.015Z,6.5
2023-01-29T16:41:28.976Z,6.7
2023-01-29T16:44:30.960Z,6.7
2023-01-29T16:47:33.055Z,7.1
2023-01-29T16:50:38.466Z,6.8
2023-01-29T16:53:36.863Z,6.9
2023-01-29T16:56:38.802Z,6.4
2023-01-29T16:59:40.756Z,7
2023-01-29T17:02:42.720Z,7.4
2023-01-29T17:05:44.688Z,6.5
2023-01-29T17:08:46.640Z,6.5
2023-01-29T17:11:48.606Z,7.1
2023-01-29T17:14:50.604Z,6.4
2023-01-29T17:17:52.576Z,7.1
2023-01-29T17:20:54.544Z,7
2023-01-29T17:23:56.486Z,6.6
2023-01-29T17:26:58.462Z,7.5
2023-01-29T17:30:00.435Z,6.3
2023-01-29T17:33:02.374Z,7.8
2023-01-29T17:36:04.337Z,7.6
2023-01-29T17:39:06.297Z,7.6
2023-01-29T17:42:08.364Z,5.9
2023-01-29T17:45:10.227Z,6.5
2023-01-29T17:48:12.191Z,8
2023-01-29T17:51:14.158Z,7.6
2023-01-29T17:54:16.167Z,8.3
2023-01-29T17:57:18.133Z,8.2
2023-01-29T18:00:20.098Z,9.7
2023-01-29T18:03:22.067Z,9
2023-01-29T18:06:24.038Z,8.4
2023-01-29T18:09:26.044Z,8.8
2023-01-29T18:12:27.955Z,9
2023-01-29T18:15:29.928Z,9.2
2023-01-29T18:18:31.901Z,8.4
2023-01-29T18:21:33.862Z,8.3
2023-01-29T18:24:35.820Z,9.8
2023-01-29T18:27:37.786Z,8.8
2023-01-29T18:30:39.800Z,8.4
2023-01-29T18:33:41.724Z,10
2023-01-29T18:36:43.699Z,9.9
2023-01-29T18:39:45.667Z,8.8
2023-01-29T18:42:47.638Z,9.6
2023-01-29T18:45:49.648Z,9.2
2023-01-29T18:48:51.556Z,10.9
2023-01-29T18:51:53.511Z,10.6
2023-01-29T18:54:55.477Z,10.7
2023-01-29T18:58:24.689Z,10.6
2023-01-29T19:00:59.467Z,11.4
2023-01-29T19:04:01.402Z,10.9
2023-01-29T19:07:03.351Z,10.5
2023-01-29T19:10:05.346Z,10.2
2023-01-29T19:13:07.305Z,10.2
2023-01-29T19:16:09.277Z,9.9
2023-01-29T19:19:11.232Z,9.8
2023-01-29T19:22:13.205Z,10.2
2023-01-29T19:25:15.312Z,10.6
2023-01-29T19:28:17.124Z,10.6
2023-01-29T19:31:19.192Z,11.3
2023-01-29T19:34:21.055Z,10.6
2023-01-29T19:37:23.018Z,10.1
2023-01-29T19:40:24.961Z,11.4
2023-01-29T19:43:26.960Z,10.6
2023-01-29T19:46:28.886Z,10.7
2023-01-29T19:49:30.869Z,10.7
2023-01-29T19:52:38.574Z,10
2023-01-29T19:55:34.794Z,11.4
2023-01-29T19:58:36.756Z,11
2023-01-29T20:01:38.730Z,11.4
2023-01-29T20:04:40.705Z,11.2
2023-01-29T20:07:42.655Z,16.4
2023-01-29T20:10:44.634Z,12.9
2023-01-29T20:13:46.589Z,13.5
2023-01-29T20:16:48.559Z,14.3
2023-01-29T20:19:50.522Z,13.8
2023-01-29T20:22:52.515Z,14
2023-01-29T20:25:54.449Z,14.4
2023-01-29T20:28:56.434Z,12.6
2023-01-29T20:31:58.395Z,11.7
2023-01-29T20:35:00.383Z,14.6
2023-01-29T20:38:02.341Z,12.7
2023-01-29T20:41:04.346Z,13.2
2023-01-29T20:44:06.265Z,15.2
2023-01-29T20:47:08.235Z,15.2
2023-01-29T20:50:10.252Z,17.1
2023-01-29T20:53:12.165Z,16.4
2023-01-29T20:56:14.133Z,15
2023-01-29T20:59:16.299Z,14.5
2023-01-29T21:02:18.097Z,17.6
2023-01-29T21:05:20.025Z,14.3
2023-01-29T21:08:21.970Z,17.1
2023-01-29T21:11:23.969Z,14.4
2023-01-29T21:14:25.907Z,14.3
2023-01-29T21:17:28.184Z,14.5
2023-01-29T21:20:29.838Z,11.8
2023-01-29T21:23:31.805Z,12.4
2023-01-29T21:26:33.856Z,13.8
2023-01-29T21:29:37.695Z,12.5
2023-01-29T21:32:37.745Z,12
2023-01-29T21:35:39.705Z,12.9
2023-01-29T21:38:41.636Z,13.1
2023-01-29T21:41:43.599Z,12.8
2023-01-29T21:44:45.599Z,13.9
2023-01-29T21:47:47.557Z,12.4
2023-01-29T21:50:49.553Z,12
2023-01-29T21:53:51.503Z,14
2023-01-29T21:56:53.478Z,12.4
2023-01-29T21:59:55.463Z,14
2023-01-29T22:02:57.474Z,13.2
2023-01-29T22:05:59.376Z,12.1
2023-01-29T22:09:01.379Z,16.1
2023-01-29T22:12:03.335Z,12.9
2023-01-29T22:15:05.301Z,14.1
2023-01-29T22:18:07.277Z,14.8
2023-01-29T22:21:09.217Z,14.6
2023-01-29T22:24:11.191Z,13.7
2023-01-29T22:27:13.155Z,14.1
2023-01-29T22:30:15.338Z,14.5
2023-01-29T22:33:17.075Z,16.1
2023-01-29T22:36:19.063Z,14
2023-01-29T22:39:21.000Z,16.2
2023-01-29T22:42:22.957Z,14.5
2023-01-29T22:45:24.953Z,13.6
2023-01-29T22:48:26.917Z,14.3
2023-01-29T22:51:28.857Z,13.8
2023-01-29T22:54:30.807Z,13.5
2023-01-29T22:57:32.783Z,13.6
2023-01-29T23:00:34.759Z,14.6
2023-01-29T23:03:36.716Z,14.1
2023-01-29T23:06:38.702Z,14
2023-01-29T23:09:40.655Z,13.8
2023-01-29T23:12:42.644Z,13.1
2023-01-29T23:15:44.647Z,14.5
2023-01-29T23:18:46.547Z,14.5
2023-01-29T23:21:48.503Z,13.5
2023-01-29T23:24:50.484Z,13
2023-01-29T23:27:52.434Z,13.5
2023-01-29T23:30:54.505Z,12.8
2023-01-29T23:33:56.393Z,13.5
2023-01-29T23:36:58.364Z,12.7
2023-01-29T23:40:00.328Z,13.4
2023-01-29T23:43:02.272Z,13.7
2023-01-29T23:46:04.250Z,13.1
2023-01-29T23:49:06.219Z,13
2023-01-29T23:52:08.186Z,14.2
2023-01-29T23:55:10.151Z,13.8
2023-01-29T23:58:12.123Z,12.5
